sensor_id;sensor_type;location;lat;lon;timestamp;P1;durP1;ratioP1;P2;durP2;ratioP2
45863;SDS011;31579;52.354;16.974;2023-04-29T00:04:04;29.90;;;17.40;;
45863;SDS011;31579;52.354;16.974;2023-04-29T00:09:04;29.90;;;17.40;;
45863;SDS011;31579;52.354;16.974;2023-04-29T00:14:04;32.10;;;19.10;;
45863;SDS011;31579;52.354;16.974;2023-04-29T00:19:04;32.10;;;19.10;;
45863;SDS011;31579;52.354;16.974;2023-04-29T00:24:04;31.90;;;17.90;;
45863;SDS011;31579;52.354;16.974;2023-04-29T00:29:04;31.90;;;17.90;;
45863;SDS011;31579;52.354;16.974;2023-04-29T00:34:04;28.30;;;18.20;;
45863;SDS011;31579;52.354;16.974;2023-04-29T00:39:04;28.30;;;18.20;;
45863;SDS011;31579;52.354;16.974;2023-04-29T00:44:04;33.30;;;20.00;;
45863;SDS011;31579;52.354;16.974;2023-04-29T00:49:04;33.30;;;20.00;;
45863;SDS011;31579;52.354;16.974;2023-04-29T00:54:04;30.80;;;19.00;;
45863;SDS011;31579;52.354;16.974;2023-04-29T00:59:04;30.80;;;19.00;;
45863;SDS011;31579;52.354;16.974;2023-04-29T01:04:06;28.90;;;18.20;;
45863;SDS011;31579;52.354;16.974;2023-04-29T01:09:16;28.90;;;18.20;;
45863;SDS011;31579;52.354;16.974;2023-04-29T01:14:04;31.10;;;18.20;;
45863;SDS011;31579;52.354;16.974;2023-04-29T01:19:15;31.10;;;18.20;;
45863;SDS011;31579;52.354;16.974;2023-04-29T01:24:04;31.50;;;17.60;;
45863;SDS011;31579;52.354;16.974;2023-04-29T01:37:12;29.40;;;17.20;;
45863;SDS011;31579;52.354;16.974;2023-04-29T01:42:09;29.40;;;17.20;;
45863;SDS011;31579;52.354;16.974;2023-04-29T01:47:05;32.00;;;18.90;;
45863;SDS011;31579;52.354;16.974;2023-04-29T01:52:05;32.00;;;18.90;;
45863;SDS011;31579;52.354;16.974;2023-04-29T01:57:05;30.20;;;18.10;;
45863;SDS011;31579;52.354;16.974;2023-04-29T02:02:05;30.20;;;18.10;;
45863;SDS011;31579;52.354;16.974;2023-04-29T02:10:01;30.50;;;16.70;;
45863;SDS011;31579;52.354;16.974;2023-04-29T02:15:01;28.40;;;16.70;;
45863;SDS011;31579;52.354;16.974;2023-04-29T02:24:02;26.80;;;16.90;;
45863;SDS011;31579;52.354;16.974;2023-04-29T02:29:02;26.80;;;16.90;;
45863;SDS011;31579;52.354;16.974;2023-04-29T02:34:02;28.00;;;17.10;;
45863;SDS011;31579;52.354;16.974;2023-04-29T02:39:02;28.00;;;17.10;;
45863;SDS011;31579;52.354;16.974;2023-04-29T02:44:02;29.90;;;18.20;;
45863;SDS011;31579;52.354;16.974;2023-04-29T02:50:16;29.90;;;18.20;;
45863;SDS011;31579;52.354;16.974;2023-04-29T02:55:14;33.10;;;19.20;;
45863;SDS011;31579;52.354;16.974;2023-04-29T03:00:14;33.10;;;19.20;;
45863;SDS011;31579;52.354;16.974;2023-04-29T03:10:24;32.40;;;19.80;;
45863;SDS011;31579;52.354;16.974;2023-04-29T03:15:24;31.10;;;19.90;;
45863;SDS011;31579;52.354;16.974;2023-04-29T03:20:24;31.10;;;19.90;;
45863;SDS011;31579;52.354;16.974;2023-04-29T03:25:24;32.10;;;19.40;;
45863;SDS011;31579;52.354;16.974;2023-04-29T03:30:24;32.10;;;19.40;;
45863;SDS011;31579;52.354;16.974;2023-04-29T03:35:27;29.80;;;18.80;;
45863;SDS011;31579;52.354;16.974;2023-04-29T03:38:44;29.80;;;18.80;;
45863;SDS011;31579;52.354;16.974;2023-04-29T03:43:42;28.50;;;17.80;;
45863;SDS011;31579;52.354;16.974;2023-04-29T03:48:43;28.50;;;17.80;;
45863;SDS011;31579;52.354;16.974;2023-04-29T03:53:42;28.20;;;17.20;;
45863;SDS011;31579;52.354;16.974;2023-04-29T03:58:43;28.20;;;17.20;;
45863;SDS011;31579;52.354;16.974;2023-04-29T04:02:29;28.20;;;17.20;;
45863;SDS011;31579;52.354;16.974;2023-04-29T04:04:50;27.50;;;16.80;;
45863;SDS011;31579;52.354;16.974;2023-04-29T04:09:48;27.50;;;16.80;;
45863;SDS011;31579;52.354;16.974;2023-04-29T04:10:16;27.50;;;16.80;;
45863;SDS011;31579;52.354;16.974;2023-04-29T04:15:15;21.90;;;14.80;;
45863;SDS011;31579;52.354;16.974;2023-04-29T04:20:15;21.90;;;14.80;;
45863;SDS011;31579;52.354;16.974;2023-04-29T04:25:19;25.60;;;15.90;;
45863;SDS011;31579;52.354;16.974;2023-04-29T04:30:15;25.60;;;15.90;;
45863;SDS011;31579;52.354;16.974;2023-04-29T04:35:15;26.80;;;16.30;;
45863;SDS011;31579;52.354;16.974;2023-04-29T04:40:15;26.80;;;16.30;;
45863;SDS011;31579;52.354;16.974;2023-04-29T04:43:23;26.80;;;16.30;;
45863;SDS011;31579;52.354;16.974;2023-04-29T04:48:22;27.50;;;16.10;;
45863;SDS011;31579;52.354;16.974;2023-04-29T04:53:22;27.50;;;16.10;;
45863;SDS011;31579;52.354;16.974;2023-04-29T04:58:22;22.30;;;14.20;;
45863;SDS011;31579;52.354;16.974;2023-04-29T05:01:45;22.30;;;14.20;;
45863;SDS011;31579;52.354;16.974;2023-04-29T05:06:43;27.40;;;16.00;;
45863;SDS011;31579;52.354;16.974;2023-04-29T05:11:43;27.40;;;16.00;;
45863;SDS011;31579;52.354;16.974;2023-04-29T05:16:43;25.40;;;15.90;;
45863;SDS011;31579;52.354;16.974;2023-04-29T05:21:43;25.40;;;15.90;;
45863;SDS011;31579;52.354;16.974;2023-04-29T05:26:43;23.90;;;15.30;;
45863;SDS011;31579;52.354;16.974;2023-04-29T05:31:46;23.90;;;15.30;;
45863;SDS011;31579;52.354;16.974;2023-04-29T05:36:43;24.50;;;15.40;;
45863;SDS011;31579;52.354;16.974;2023-04-29T05:41:43;24.50;;;15.40;;
45863;SDS011;31579;52.354;16.974;2023-04-29T05:46:43;23.80;;;14.90;;
45863;SDS011;31579;52.354;16.974;2023-04-29T05:51:43;23.80;;;14.90;;
45863;SDS011;31579;52.354;16.974;2023-04-29T05:56:43;20.60;;;13.60;;
45863;SDS011;31579;52.354;16.974;2023-04-29T06:01:43;20.60;;;13.60;;
45863;SDS011;31579;52.354;16.974;2023-04-29T06:06:43;29.70;;;15.80;;
45863;SDS011;31579;52.354;16.974;2023-04-29T06:11:43;29.70;;;15.80;;
45863;SDS011;31579;52.354;16.974;2023-04-29T06:16:43;25.40;;;14.20;;
45863;SDS011;31579;52.354;16.974;2023-04-29T06:21:43;25.40;;;14.20;;
45863;SDS011;31579;52.354;16.974;2023-04-29T06:26:43;19.20;;;12.30;;
45863;SDS011;31579;52.354;16.974;2023-04-29T06:31:43;19.20;;;12.30;;
45863;SDS011;31579;52.354;16.974;2023-04-29T06:36:46;19.80;;;11.60;;
45863;SDS011;31579;52.354;16.974;2023-04-29T06:41:43;19.80;;;11.60;;
45863;SDS011;31579;52.354;16.974;2023-04-29T06:43:05;19.80;;;11.60;;
45863;SDS011;31579;52.354;16.974;2023-04-29T06:48:03;18.90;;;11.40;;
45863;SDS011;31579;52.354;16.974;2023-04-29T06:53:03;18.90;;;11.40;;
45863;SDS011;31579;52.354;16.974;2023-04-29T06:58:03;16.80;;;11.30;;
45863;SDS011;31579;52.354;16.974;2023-04-29T07:03:03;16.80;;;11.30;;
45863;SDS011;31579;52.354;16.974;2023-04-29T07:08:03;17.40;;;11.10;;
45863;SDS011;31579;52.354;16.974;2023-04-29T07:13:05;17.40;;;11.10;;
45863;SDS011;31579;52.354;16.974;2023-04-29T07:18:03;17.50;;;11.50;;
45863;SDS011;31579;52.354;16.974;2023-04-29T07:23:03;17.50;;;11.50;;
45863;SDS011;31579;52.354;16.974;2023-04-29T07:28:03;16.10;;;10.30;;
45863;SDS011;31579;52.354;16.974;2023-04-29T07:33:03;16.10;;;10.30;;
45863;SDS011;31579;52.354;16.974;2023-04-29T07:38:03;17.80;;;10.80;;
45863;SDS011;31579;52.354;16.974;2023-04-29T07:43:03;17.80;;;10.80;;
45863;SDS011;31579;52.354;16.974;2023-04-29T07:48:03;17.30;;;11.00;;
45863;SDS011;31579;52.354;16.974;2023-04-29T07:50:17;17.30;;;11.00;;
45863;SDS011;31579;52.354;16.974;2023-04-29T07:55:15;16.30;;;11.30;;
45863;SDS011;31579;52.354;16.974;2023-04-29T08:00:15;16.30;;;11.30;;
45863;SDS011;31579;52.354;16.974;2023-04-29T08:01:08;16.30;;;11.30;;
45863;SDS011;31579;52.354;16.974;2023-04-29T08:06:04;17.90;;;11.10;;
45863;SDS011;31579;52.354;16.974;2023-04-29T08:11:03;17.90;;;11.10;;
45863;SDS011;31579;52.354;16.974;2023-04-29T08:16:03;16.60;;;10.20;;
45863;SDS011;31579;52.354;16.974;2023-04-29T08:21:03;16.60;;;10.20;;
45863;SDS011;31579;52.354;16.974;2023-04-29T08:26:03;15.50;;;9.90;;
45863;SDS011;31579;52.354;16.974;2023-04-29T08:31:05;15.50;;;9.90;;
45863;SDS011;31579;52.354;16.974;2023-04-29T08:36:03;17.90;;;10.10;;
45863;SDS011;31579;52.354;16.974;2023-04-29T08:41:05;17.90;;;10.10;;
45863;SDS011;31579;52.354;16.974;2023-04-29T08:46:03;15.00;;;9.90;;
45863;SDS011;31579;52.354;16.974;2023-04-29T08:47:18;15.00;;;9.90;;
45863;SDS011;31579;52.354;16.974;2023-04-29T08:52:17;15.00;;;9.90;;
45863;SDS011;31579;52.354;16.974;2023-04-29T08:57:17;12.10;;;9.20;;
45863;SDS011;31579;52.354;16.974;2023-04-29T09:02:17;12.10;;;9.20;;
45863;SDS011;31579;52.354;16.974;2023-04-29T09:07:17;14.70;;;9.50;;
45863;SDS011;31579;52.354;16.974;2023-04-29T09:12:17;14.70;;;9.50;;
45863;SDS011;31579;52.354;16.974;2023-04-29T09:17:17;13.20;;;9.20;;
45863;SDS011;31579;52.354;16.974;2023-04-29T09:23:18;16.10;;;9.50;;
45863;SDS011;31579;52.354;16.974;2023-04-29T09:28:18;16.10;;;9.50;;
45863;SDS011;31579;52.354;16.974;2023-04-29T09:33:18;14.80;;;10.20;;
45863;SDS011;31579;52.354;16.974;2023-04-29T09:38:18;14.80;;;10.20;;
45863;SDS011;31579;52.354;16.974;2023-04-29T09:43:18;15.20;;;10.20;;
45863;SDS011;31579;52.354;16.974;2023-04-29T09:48:21;15.20;;;10.20;;
45863;SDS011;31579;52.354;16.974;2023-04-29T09:53:26;13.30;;;9.30;;
45863;SDS011;31579;52.354;16.974;2023-04-29T09:58:27;13.30;;;9.30;;
45863;SDS011;31579;52.354;16.974;2023-04-29T10:03:18;12.60;;;9.10;;
45863;SDS011;31579;52.354;16.974;2023-04-29T10:08:18;12.60;;;9.10;;
45863;SDS011;31579;52.354;16.974;2023-04-29T10:13:18;8.10;;;5.90;;
45863;SDS011;31579;52.354;16.974;2023-04-29T10:18:19;8.10;;;5.90;;
45863;SDS011;31579;52.354;16.974;2023-04-29T10:23:18;11.20;;;6.80;;
45863;SDS011;31579;52.354;16.974;2023-04-29T10:28:18;11.20;;;6.80;;
45863;SDS011;31579;52.354;16.974;2023-04-29T10:33:18;15.80;;;8.00;;
45863;SDS011;31579;52.354;16.974;2023-04-29T10:38:21;15.80;;;8.00;;
45863;SDS011;31579;52.354;16.974;2023-04-29T10:43:30;9.00;;;7.30;;
45863;SDS011;31579;52.354;16.974;2023-04-29T10:48:29;9.00;;;7.30;;
45863;SDS011;31579;52.354;16.974;2023-04-29T10:53:29;10.00;;;6.50;;
45863;SDS011;31579;52.354;16.974;2023-04-29T11:08:29;13.00;;;8.10;;
45863;SDS011;31579;52.354;16.974;2023-04-29T11:13:36;12.40;;;8.90;;
45863;SDS011;31579;52.354;16.974;2023-04-29T11:18:29;12.40;;;8.90;;
45863;SDS011;31579;52.354;16.974;2023-04-29T11:23:29;13.20;;;9.10;;
45863;SDS011;31579;52.354;16.974;2023-04-29T11:28:30;13.20;;;9.10;;
45863;SDS011;31579;52.354;16.974;2023-04-29T11:33:30;13.20;;;9.90;;
45863;SDS011;31579;52.354;16.974;2023-04-29T11:38:29;13.20;;;9.90;;
45863;SDS011;31579;52.354;16.974;2023-04-29T11:43:29;15.00;;;10.10;;
45863;SDS011;31579;52.354;16.974;2023-04-29T11:48:29;15.00;;;10.10;;
45863;SDS011;31579;52.354;16.974;2023-04-29T11:53:29;13.00;;;10.20;;
45863;SDS011;31579;52.354;16.974;2023-04-29T11:58:29;13.00;;;10.20;;
45863;SDS011;31579;52.354;16.974;2023-04-29T12:03:30;15.90;;;10.20;;
45863;SDS011;31579;52.354;16.974;2023-04-29T12:08:29;15.90;;;10.20;;
45863;SDS011;31579;52.354;16.974;2023-04-29T12:13:29;14.20;;;10.10;;
45863;SDS011;31579;52.354;16.974;2023-04-29T12:18:29;14.20;;;10.10;;
45863;SDS011;31579;52.354;16.974;2023-04-29T12:19:39;14.20;;;10.10;;
45863;SDS011;31579;52.354;16.974;2023-04-29T12:24:38;16.50;;;10.90;;
45863;SDS011;31579;52.354;16.974;2023-04-29T12:29:37;16.50;;;10.90;;
45863;SDS011;31579;52.354;16.974;2023-04-29T12:34:38;13.40;;;10.20;;
45863;SDS011;31579;52.354;16.974;2023-04-29T12:39:37;13.40;;;10.20;;
45863;SDS011;31579;52.354;16.974;2023-04-29T12:44:37;14.20;;;10.20;;
45863;SDS011;31579;52.354;16.974;2023-04-29T12:49:46;14.20;;;10.20;;
45863;SDS011;31579;52.354;16.974;2023-04-29T12:54:37;11.70;;;9.50;;
45863;SDS011;31579;52.354;16.974;2023-04-29T12:59:37;11.70;;;9.50;;
45863;SDS011;31579;52.354;16.974;2023-04-29T13:04:39;14.70;;;11.30;;
45863;SDS011;31579;52.354;16.974;2023-04-29T13:09:37;14.70;;;11.30;;
45863;SDS011;31579;52.354;16.974;2023-04-29T13:14:37;12.00;;;10.00;;
45863;SDS011;31579;52.354;16.974;2023-04-29T13:19:37;12.00;;;10.00;;
45863;SDS011;31579;52.354;16.974;2023-04-29T13:24:37;14.20;;;10.60;;
45863;SDS011;31579;52.354;16.974;2023-04-29T13:29:37;14.20;;;10.60;;
45863;SDS011;31579;52.354;16.974;2023-04-29T13:34:37;14.40;;;11.60;;
45863;SDS011;31579;52.354;16.974;2023-04-29T13:39:37;14.40;;;11.60;;
45863;SDS011;31579;52.354;16.974;2023-04-29T13:44:37;12.20;;;8.90;;
45863;SDS011;31579;52.354;16.974;2023-04-29T13:46:07;12.20;;;8.90;;
45863;SDS011;31579;52.354;16.974;2023-04-29T13:51:05;12.20;;;8.90;;
45863;SDS011;31579;52.354;16.974;2023-04-29T13:56:05;10.40;;;7.00;;
45863;SDS011;31579;52.354;16.974;2023-04-29T14:01:05;10.40;;;7.00;;
45863;SDS011;31579;52.354;16.974;2023-04-29T14:06:05;8.50;;;4.80;;
45863;SDS011;31579;52.354;16.974;2023-04-29T14:11:05;8.50;;;4.80;;
45863;SDS011;31579;52.354;16.974;2023-04-29T14:16:05;9.60;;;4.30;;
45863;SDS011;31579;52.354;16.974;2023-04-29T14:21:05;9.60;;;4.30;;
45863;SDS011;31579;52.354;16.974;2023-04-29T14:26:05;6.50;;;4.10;;
45863;SDS011;31579;52.354;16.974;2023-04-29T14:31:05;6.50;;;4.10;;
45863;SDS011;31579;52.354;16.974;2023-04-29T14:36:05;7.00;;;4.10;;
45863;SDS011;31579;52.354;16.974;2023-04-29T14:41:05;7.00;;;4.10;;
45863;SDS011;31579;52.354;16.974;2023-04-29T14:46:05;6.70;;;4.40;;
45863;SDS011;31579;52.354;16.974;2023-04-29T14:51:05;6.70;;;4.40;;
45863;SDS011;31579;52.354;16.974;2023-04-29T14:53:19;6.70;;;4.40;;
45863;SDS011;31579;52.354;16.974;2023-04-29T14:58:17;7.40;;;4.30;;
45863;SDS011;31579;52.354;16.974;2023-04-29T15:03:17;10.20;;;6.90;;
45863;SDS011;31579;52.354;16.974;2023-04-29T15:05:16;10.20;;;6.90;;
45863;SDS011;31579;52.354;16.974;2023-04-29T15:10:14;10.20;;;6.90;;
45863;SDS011;31579;52.354;16.974;2023-04-29T15:15:15;9.80;;;5.50;;
45863;SDS011;31579;52.354;16.974;2023-04-29T15:20:14;9.80;;;5.50;;
45863;SDS011;31579;52.354;16.974;2023-04-29T15:25:14;9.50;;;6.00;;
45863;SDS011;31579;52.354;16.974;2023-04-29T15:30:14;9.50;;;6.00;;
45863;SDS011;31579;52.354;16.974;2023-04-29T15:35:17;9.70;;;6.70;;
45863;SDS011;31579;52.354;16.974;2023-04-29T15:40:14;9.70;;;6.70;;
45863;SDS011;31579;52.354;16.974;2023-04-29T15:45:14;10.70;;;7.10;;
45863;SDS011;31579;52.354;16.974;2023-04-29T15:50:15;10.70;;;7.10;;
45863;SDS011;31579;52.354;16.974;2023-04-29T15:55:14;13.70;;;9.60;;
45863;SDS011;31579;52.354;16.974;2023-04-29T16:00:14;13.70;;;9.60;;
45863;SDS011;31579;52.354;16.974;2023-04-29T16:05:14;12.80;;;7.50;;
45863;SDS011;31579;52.354;16.974;2023-04-29T16:10:14;12.80;;;7.50;;
45863;SDS011;31579;52.354;16.974;2023-04-29T16:15:14;11.70;;;7.40;;
45863;SDS011;31579;52.354;16.974;2023-04-29T16:20:14;11.70;;;7.40;;
45863;SDS011;31579;52.354;16.974;2023-04-29T16:25:14;8.70;;;6.00;;
45863;SDS011;31579;52.354;16.974;2023-04-29T16:30:14;8.70;;;6.00;;
45863;SDS011;31579;52.354;16.974;2023-04-29T16:35:14;10.70;;;7.90;;
45863;SDS011;31579;52.354;16.974;2023-04-29T16:40:14;10.70;;;7.90;;
45863;SDS011;31579;52.354;16.974;2023-04-29T16:45:14;15.10;;;10.90;;
45863;SDS011;31579;52.354;16.974;2023-04-29T16:50:14;15.10;;;10.90;;
45863;SDS011;31579;52.354;16.974;2023-04-29T16:57:03;17.40;;;12.60;;
45863;SDS011;31579;52.354;16.974;2023-04-29T17:02:02;17.40;;;12.60;;
45863;SDS011;31579;52.354;16.974;2023-04-29T17:07:02;18.70;;;12.80;;
45863;SDS011;31579;52.354;16.974;2023-04-29T17:12:03;18.70;;;12.80;;
45863;SDS011;31579;52.354;16.974;2023-04-29T17:17:02;22.80;;;15.50;;
45863;SDS011;31579;52.354;16.974;2023-04-29T17:22:06;22.80;;;15.50;;
45863;SDS011;31579;52.354;16.974;2023-04-29T17:29:09;24.40;;;16.50;;
45863;SDS011;31579;52.354;16.974;2023-04-29T17:34:10;22.80;;;15.60;;
45863;SDS011;31579;52.354;16.974;2023-04-29T17:39:09;22.80;;;15.60;;
45863;SDS011;31579;52.354;16.974;2023-04-29T17:44:09;29.80;;;18.60;;
45863;SDS011;31579;52.354;16.974;2023-04-29T17:49:09;29.80;;;18.60;;
45863;SDS011;31579;52.354;16.974;2023-04-29T17:54:09;33.40;;;20.50;;
45863;SDS011;31579;52.354;16.974;2023-04-29T17:59:09;33.40;;;20.50;;
45863;SDS011;31579;52.354;16.974;2023-04-29T18:04:09;35.50;;;20.90;;
45863;SDS011;31579;52.354;16.974;2023-04-29T18:09:09;35.50;;;20.90;;
45863;SDS011;31579;52.354;16.974;2023-04-29T18:14:09;41.80;;;24.50;;
45863;SDS011;31579;52.354;16.974;2023-04-29T18:19:09;41.80;;;24.50;;
45863;SDS011;31579;52.354;16.974;2023-04-29T18:24:09;46.70;;;25.20;;
45863;SDS011;31579;52.354;16.974;2023-04-29T18:29:12;46.70;;;25.20;;
45863;SDS011;31579;52.354;16.974;2023-04-29T18:34:09;48.20;;;24.30;;
45863;SDS011;31579;52.354;16.974;2023-04-29T18:39:09;48.20;;;24.30;;
45863;SDS011;31579;52.354;16.974;2023-04-29T18:49:02;39.60;;;22.80;;
45863;SDS011;31579;52.354;16.974;2023-04-29T18:54:02;36.20;;;21.50;;
45863;SDS011;31579;52.354;16.974;2023-04-29T18:59:02;36.20;;;21.50;;
45863;SDS011;31579;52.354;16.974;2023-04-29T19:04:02;34.30;;;20.70;;
45863;SDS011;31579;52.354;16.974;2023-04-29T19:08:52;34.30;;;20.70;;
45863;SDS011;31579;52.354;16.974;2023-04-29T19:13:51;33.10;;;19.70;;
45863;SDS011;31579;52.354;16.974;2023-04-29T19:18:50;33.10;;;19.70;;
45863;SDS011;31579;52.354;16.974;2023-04-29T19:23:50;28.30;;;18.70;;
45863;SDS011;31579;52.354;16.974;2023-04-29T19:28:50;28.30;;;18.70;;
45863;SDS011;31579;52.354;16.974;2023-04-29T19:33:50;26.60;;;17.40;;
45863;SDS011;31579;52.354;16.974;2023-04-29T19:38:53;26.60;;;17.40;;
45863;SDS011;31579;52.354;16.974;2023-04-29T19:43:50;23.60;;;17.00;;
45863;SDS011;31579;52.354;16.974;2023-04-29T19:48:50;23.60;;;17.00;;
45863;SDS011;31579;52.354;16.974;2023-04-29T19:53:51;24.10;;;16.30;;
45863;SDS011;31579;52.354;16.974;2023-04-29T19:58:50;24.10;;;16.30;;
45863;SDS011;31579;52.354;16.974;2023-04-29T20:03:50;23.10;;;15.40;;
45863;SDS011;31579;52.354;16.974;2023-04-29T20:08:50;23.10;;;15.40;;
45863;SDS011;31579;52.354;16.974;2023-04-29T20:11:59;23.10;;;15.40;;
45863;SDS011;31579;52.354;16.974;2023-04-29T20:16:57;19.60;;;12.70;;
45863;SDS011;31579;52.354;16.974;2023-04-29T20:21:57;19.60;;;12.70;;
45863;SDS011;31579;52.354;16.974;2023-04-29T20:26:57;18.60;;;11.80;;
45863;SDS011;31579;52.354;16.974;2023-04-29T20:31:58;18.60;;;11.80;;
45863;SDS011;31579;52.354;16.974;2023-04-29T20:36:58;17.30;;;11.70;;
45863;SDS011;31579;52.354;16.974;2023-04-29T20:41:57;17.30;;;11.70;;
45863;SDS011;31579;52.354;16.974;2023-04-29T20:46:57;18.10;;;11.80;;
45863;SDS011;31579;52.354;16.974;2023-04-29T20:52:10;18.10;;;11.80;;
45863;SDS011;31579;52.354;16.974;2023-04-29T20:57:10;15.40;;;10.50;;
45863;SDS011;31579;52.354;16.974;2023-04-29T21:02:10;15.40;;;10.50;;
45863;SDS011;31579;52.354;16.974;2023-04-29T21:07:10;16.00;;;10.20;;
45863;SDS011;31579;52.354;16.974;2023-04-29T21:12:10;16.00;;;10.20;;
45863;SDS011;31579;52.354;16.974;2023-04-29T21:17:10;16.20;;;10.30;;
45863;SDS011;31579;52.354;16.974;2023-04-29T21:22:10;16.20;;;10.30;;
45863;SDS011;31579;52.354;16.974;2023-04-29T21:27:10;17.60;;;8.90;;
45863;SDS011;31579;52.354;16.974;2023-04-29T21:32:10;17.60;;;8.90;;
45863;SDS011;31579;52.354;16.974;2023-04-29T21:33:04;17.60;;;8.90;;
45863;SDS011;31579;52.354;16.974;2023-04-29T21:38:03;15.10;;;8.60;;
45863;SDS011;31579;52.354;16.974;2023-04-29T21:43:03;15.70;;;8.60;;
45863;SDS011;31579;52.354;16.974;2023-04-29T21:48:06;15.70;;;8.60;;
45863;SDS011;31579;52.354;16.974;2023-04-29T21:53:03;15.40;;;8.90;;
45863;SDS011;31579;52.354;16.974;2023-04-29T21:58:03;15.40;;;8.90;;
45863;SDS011;31579;52.354;16.974;2023-04-29T22:03:07;15.90;;;8.50;;
45863;SDS011;31579;52.354;16.974;2023-04-29T22:08:03;15.90;;;8.50;;
45863;SDS011;31579;52.354;16.974;2023-04-29T22:13:03;14.00;;;8.30;;
45863;SDS011;31579;52.354;16.974;2023-04-29T22:18:04;14.00;;;8.30;;
45863;SDS011;31579;52.354;16.974;2023-04-29T22:23:03;14.00;;;8.20;;
45863;SDS011;31579;52.354;16.974;2023-04-29T22:28:03;14.00;;;8.20;;
45863;SDS011;31579;52.354;16.974;2023-04-29T22:33:03;14.90;;;8.90;;
45863;SDS011;31579;52.354;16.974;2023-04-29T22:38:03;14.90;;;8.90;;
45863;SDS011;31579;52.354;16.974;2023-04-29T22:43:03;15.00;;;9.00;;
45863;SDS011;31579;52.354;16.974;2023-04-29T22:48:03;15.00;;;9.00;;
45863;SDS011;31579;52.354;16.974;2023-04-29T22:53:03;14.30;;;9.30;;
45863;SDS011;31579;52.354;16.974;2023-04-29T22:58:03;14.30;;;9.30;;
45863;SDS011;31579;52.354;16.974;2023-04-29T23:03:03;18.00;;;11.00;;
45863;SDS011;31579;52.354;16.974;2023-04-29T23:08:03;18.00;;;11.00;;
45863;SDS011;31579;52.354;16.974;2023-04-29T23:13:03;18.80;;;12.60;;
45863;SDS011;31579;52.354;16.974;2023-04-29T23:18:03;18.80;;;12.60;;
45863;SDS011;31579;52.354;16.974;2023-04-29T23:23:06;21.00;;;11.90;;
45863;SDS011;31579;52.354;16.974;2023-04-29T23:28:03;21.00;;;11.90;;
45863;SDS011;31579;52.354;16.974;2023-04-29T23:33:03;19.70;;;12.60;;
45863;SDS011;31579;52.354;16.974;2023-04-29T23:38:04;19.70;;;12.60;;
45863;SDS011;31579;52.354;16.974;2023-04-29T23:43:03;20.20;;;12.80;;
45863;SDS011;31579;52.354;16.974;2023-04-29T23:48:03;20.20;;;12.80;;
45863;SDS011;31579;52.354;16.974;2023-04-29T23:53:03;18.90;;;11.70;;
45863;SDS011;31579;52.354;16.974;2023-04-29T23:58:03;18.90;;;11.70;;
